sensor_id;sensor_type;location;lat;lon;timestamp;pressure;altitude;pressure_sealevel;temperature;humidity
3428;BME280;1727;42.624;23.406;2022-10-16T00:01:48;95496.38;;;12.53;80.83
3428;BME280;1727;42.624;23.406;2022-10-16T00:04:15;95497.19;;;12.53;80.28
3428;BME280;1727;42.624;23.406;2022-10-16T00:06:41;95503.69;;;12.49;80.36
3428;BME280;1727;42.624;23.406;2022-10-16T00:09:09;95503.56;;;12.51;80.91
3428;BME280;1727;42.624;23.406;2022-10-16T00:11:38;95506.31;;;12.49;79.99
3428;BME280;1727;42.624;23.406;2022-10-16T00:14:10;95502.03;;;12.48;80.46
3428;BME280;1727;42.624;23.406;2022-10-16T00:16:38;95507.66;;;12.44;80.26
3428;BME280;1727;42.624;23.406;2022-10-16T00:19:05;95507.88;;;12.40;80.15
3428;BME280;1727;42.624;23.406;2022-10-16T00:21:32;95512.81;;;12.34;80.02
3428;BME280;1727;42.624;23.406;2022-10-16T00:24:01;95509.38;;;12.33;80.42
3428;BME280;1727;42.624;23.406;2022-10-16T00:26:30;95514.75;;;12.32;79.81
3428;BME280;1727;42.624;23.406;2022-10-16T00:28:57;95519.31;;;12.30;79.93
3428;BME280;1727;42.624;23.406;2022-10-16T00:31:24;95519.69;;;12.25;80.13
3428;BME280;1727;42.624;23.406;2022-10-16T00:33:51;95519.94;;;12.22;80.46
3428;BME280;1727;42.624;23.406;2022-10-16T00:36:20;95524.50;;;12.20;81.23
3428;BME280;1727;42.624;23.406;2022-10-16T00:38:50;95519.47;;;12.17;80.87
3428;BME280;1727;42.624;23.406;2022-10-16T00:41:18;95527.25;;;12.19;81.00
3428;BME280;1727;42.624;23.406;2022-10-16T00:43:48;95527.97;;;12.21;80.81
3428;BME280;1727;42.624;23.406;2022-10-16T00:46:18;95520.91;;;12.21;80.66
3428;BME280;1727;42.624;23.406;2022-10-16T00:48:50;95524.38;;;12.22;80.30
3428;BME280;1727;42.624;23.406;2022-10-16T00:51:20;95522.44;;;12.24;80.65
3428;BME280;1727;42.624;23.406;2022-10-16T00:53:48;95526.16;;;12.21;79.76
3428;BME280;1727;42.624;23.406;2022-10-16T00:56:16;95529.03;;;12.18;79.64
3428;BME280;1727;42.624;23.406;2022-10-16T00:58:43;95517.31;;;12.11;80.58
3428;BME280;1727;42.624;23.406;2022-10-16T01:01:11;95535.88;;;12.09;79.23
3428;BME280;1727;42.624;23.406;2022-10-16T01:03:38;95529.44;;;12.02;79.44
3428;BME280;1727;42.624;23.406;2022-10-16T01:06:12;95538.44;;;11.89;79.35
3428;BME280;1727;42.624;23.406;2022-10-16T01:08:52;95541.78;;;11.79;80.46
3428;BME280;1727;42.624;23.406;2022-10-16T01:11:25;95544.63;;;11.76;81.07
3428;BME280;1727;42.624;23.406;2022-10-16T01:13:56;95543.44;;;11.69;81.97
3428;BME280;1727;42.624;23.406;2022-10-16T01:16:30;95542.47;;;11.70;81.33
3428;BME280;1727;42.624;23.406;2022-10-16T01:19:04;95542.59;;;11.69;81.26
3428;BME280;1727;42.624;23.406;2022-10-16T01:21:37;95536.75;;;11.65;80.99
3428;BME280;1727;42.624;23.406;2022-10-16T01:24:12;95538.66;;;11.63;81.77
3428;BME280;1727;42.624;23.406;2022-10-16T01:27:06;95529.34;;;11.59;81.27
3428;BME280;1727;42.624;23.406;2022-10-16T01:29:37;95525.06;;;11.58;81.49
3428;BME280;1727;42.624;23.406;2022-10-16T01:32:20;95524.56;;;11.53;81.35
3428;BME280;1727;42.624;23.406;2022-10-16T01:34:51;95529.09;;;11.51;81.87
3428;BME280;1727;42.624;23.406;2022-10-16T01:37:28;95524.09;;;11.48;82.21
3428;BME280;1727;42.624;23.406;2022-10-16T01:39:58;95523.72;;;11.41;82.98
3428;BME280;1727;42.624;23.406;2022-10-16T01:42:32;95515.13;;;11.39;82.33
3428;BME280;1727;42.624;23.406;2022-10-16T01:45:01;95524.91;;;11.26;82.93
3428;BME280;1727;42.624;23.406;2022-10-16T01:47:30;95530.41;;;11.23;83.39
3428;BME280;1727;42.624;23.406;2022-10-16T01:49:59;95528.72;;;11.11;84.47
3428;BME280;1727;42.624;23.406;2022-10-16T01:52:27;95533.34;;;10.96;85.38
3428;BME280;1727;42.624;23.406;2022-10-16T01:54:56;95537.63;;;10.86;85.42
3428;BME280;1727;42.624;23.406;2022-10-16T01:57:26;95533.81;;;10.90;85.54
3428;BME280;1727;42.624;23.406;2022-10-16T01:59:58;95534.06;;;10.87;85.07
3428;BME280;1727;42.624;23.406;2022-10-16T02:02:29;95533.56;;;10.82;85.62
3428;BME280;1727;42.624;23.406;2022-10-16T02:05:03;95535.25;;;10.83;85.13
3428;BME280;1727;42.624;23.406;2022-10-16T02:07:31;95537.88;;;10.83;85.16
3428;BME280;1727;42.624;23.406;2022-10-16T02:09:59;95540.38;;;10.84;85.93
3428;BME280;1727;42.624;23.406;2022-10-16T02:12:29;95541.88;;;10.65;86.77
3428;BME280;1727;42.624;23.406;2022-10-16T02:14:59;95547.91;;;10.54;87.27
3428;BME280;1727;42.624;23.406;2022-10-16T02:17:26;95550.09;;;10.60;86.87
3428;BME280;1727;42.624;23.406;2022-10-16T02:19:54;95559.81;;;10.47;87.22
3428;BME280;1727;42.624;23.406;2022-10-16T02:22:26;95555.81;;;10.30;88.56
3428;BME280;1727;42.624;23.406;2022-10-16T02:24:57;95558.03;;;10.23;88.33
3428;BME280;1727;42.624;23.406;2022-10-16T02:27:27;95561.72;;;10.21;89.00
3428;BME280;1727;42.624;23.406;2022-10-16T02:30:02;95564.78;;;10.15;89.44
3428;BME280;1727;42.624;23.406;2022-10-16T02:32:35;95564.66;;;10.16;88.92
3428;BME280;1727;42.624;23.406;2022-10-16T02:35:04;95568.44;;;10.12;89.36
3428;BME280;1727;42.624;23.406;2022-10-16T02:37:32;95573.06;;;10.21;88.89
3428;BME280;1727;42.624;23.406;2022-10-16T02:39:59;95566.22;;;10.19;88.63
3428;BME280;1727;42.624;23.406;2022-10-16T02:42:32;95569.91;;;10.16;89.90
3428;BME280;1727;42.624;23.406;2022-10-16T02:45:01;95564.69;;;10.04;89.67
3428;BME280;1727;42.624;23.406;2022-10-16T02:47:29;95565.25;;;9.96;90.53
3428;BME280;1727;42.624;23.406;2022-10-16T02:49:55;95572.06;;;9.99;91.01
3428;BME280;1727;42.624;23.406;2022-10-16T02:52:22;95568.59;;;9.98;90.10
3428;BME280;1727;42.624;23.406;2022-10-16T02:54:49;95584.22;;;10.00;89.50
3428;BME280;1727;42.624;23.406;2022-10-16T02:57:16;95576.22;;;9.52;90.81
3428;BME280;1727;42.624;23.406;2022-10-16T02:59:43;95581.19;;;9.18;92.40
3428;BME280;1727;42.624;23.406;2022-10-16T03:02:11;95586.72;;;9.39;91.57
3428;BME280;1727;42.624;23.406;2022-10-16T03:04:38;95587.47;;;9.03;93.49
3428;BME280;1727;42.624;23.406;2022-10-16T03:07:05;95586.00;;;9.24;92.89
3428;BME280;1727;42.624;23.406;2022-10-16T03:09:32;95584.22;;;9.38;92.71
3428;BME280;1727;42.624;23.406;2022-10-16T03:11:59;95592.59;;;9.43;91.92
3428;BME280;1727;42.624;23.406;2022-10-16T03:14:26;95586.81;;;9.50;91.07
3428;BME280;1727;42.624;23.406;2022-10-16T03:16:53;95601.31;;;9.56;90.77
3428;BME280;1727;42.624;23.406;2022-10-16T03:19:22;95591.22;;;9.62;90.67
3428;BME280;1727;42.624;23.406;2022-10-16T03:21:49;95597.59;;;9.71;89.87
3428;BME280;1727;42.624;23.406;2022-10-16T03:24:15;95602.06;;;9.82;90.01
3428;BME280;1727;42.624;23.406;2022-10-16T03:26:42;95599.78;;;9.90;89.18
3428;BME280;1727;42.624;23.406;2022-10-16T03:29:09;95599.09;;;9.99;88.34
3428;BME280;1727;42.624;23.406;2022-10-16T03:31:36;95599.09;;;9.99;87.37
3428;BME280;1727;42.624;23.406;2022-10-16T03:34:02;95602.22;;;10.04;87.62
3428;BME280;1727;42.624;23.406;2022-10-16T03:36:30;95605.59;;;10.06;87.68
3428;BME280;1727;42.624;23.406;2022-10-16T03:38:57;95605.47;;;10.08;87.42
3428;BME280;1727;42.624;23.406;2022-10-16T03:41:24;95601.06;;;10.08;86.95
3428;BME280;1727;42.624;23.406;2022-10-16T03:43:51;95598.78;;;10.04;88.38
3428;BME280;1727;42.624;23.406;2022-10-16T03:46:18;95598.28;;;9.99;88.00
3428;BME280;1727;42.624;23.406;2022-10-16T03:48:44;95598.94;;;9.89;89.09
3428;BME280;1727;42.624;23.406;2022-10-16T03:51:11;95593.06;;;9.86;89.29
3428;BME280;1727;42.624;23.406;2022-10-16T03:53:39;95599.44;;;9.82;89.65
3428;BME280;1727;42.624;23.406;2022-10-16T03:56:06;95594.47;;;9.66;89.97
3428;BME280;1727;42.624;23.406;2022-10-16T03:58:33;95591.22;;;9.62;90.30
3428;BME280;1727;42.624;23.406;2022-10-16T04:01:00;95585.88;;;9.64;90.45
3428;BME280;1727;42.624;23.406;2022-10-16T04:03:27;95591.00;;;9.66;90.32
3428;BME280;1727;42.624;23.406;2022-10-16T04:05:53;95586.38;;;9.69;89.95
3428;BME280;1727;42.624;23.406;2022-10-16T04:08:20;95586.88;;;9.74;89.60
3428;BME280;1727;42.624;23.406;2022-10-16T04:10:48;95592.88;;;9.76;88.90
3428;BME280;1727;42.624;23.406;2022-10-16T04:13:15;95590.13;;;9.78;89.21
3428;BME280;1727;42.624;23.406;2022-10-16T04:15:42;95592.88;;;9.76;89.16
3428;BME280;1727;42.624;23.406;2022-10-16T04:18:11;95598.09;;;9.76;88.74
3428;BME280;1727;42.624;23.406;2022-10-16T04:20:37;95595.47;;;9.76;90.00
3428;BME280;1727;42.624;23.406;2022-10-16T04:23:04;95592.13;;;9.74;89.57
3428;BME280;1727;42.624;23.406;2022-10-16T04:25:31;95589.19;;;9.79;89.37
3428;BME280;1727;42.624;23.406;2022-10-16T04:27:59;95600.09;;;9.85;88.83
3428;BME280;1727;42.624;23.406;2022-10-16T04:30:26;95596.31;;;9.89;88.95
3428;BME280;1727;42.624;23.406;2022-10-16T04:32:53;95591.28;;;9.86;88.94
3428;BME280;1727;42.624;23.406;2022-10-16T04:35:21;95590.97;;;9.91;88.58
3428;BME280;1727;42.624;23.406;2022-10-16T04:37:48;95604.91;;;9.91;88.38
3428;BME280;1727;42.624;23.406;2022-10-16T04:40:16;95608.34;;;9.92;88.36
3428;BME280;1727;42.624;23.406;2022-10-16T04:42:42;95611.81;;;9.92;88.43
3428;BME280;1727;42.624;23.406;2022-10-16T04:45:11;95618.13;;;9.90;88.08
3428;BME280;1727;42.624;23.406;2022-10-16T04:47:38;95622.84;;;9.85;88.24
3428;BME280;1727;42.624;23.406;2022-10-16T04:50:05;95621.19;;;9.84;88.49
3428;BME280;1727;42.624;23.406;2022-10-16T04:52:32;95621.38;;;9.81;88.70
3428;BME280;1727;42.624;23.406;2022-10-16T04:54:59;95618.63;;;9.82;89.52
3428;BME280;1727;42.624;23.406;2022-10-16T04:57:29;95623.16;;;9.80;90.41
3428;BME280;1727;42.624;23.406;2022-10-16T05:00:05;95625.38;;;9.86;90.07
3428;BME280;1727;42.624;23.406;2022-10-16T05:02:35;95628.28;;;9.94;91.00
3428;BME280;1727;42.624;23.406;2022-10-16T05:05:03;95634.53;;;10.05;90.15
3428;BME280;1727;42.624;23.406;2022-10-16T05:07:34;95638.38;;;10.12;89.29
3428;BME280;1727;42.624;23.406;2022-10-16T05:10:01;95644.53;;;10.36;88.47
3428;BME280;1727;42.624;23.406;2022-10-16T05:12:29;95642.50;;;11.00;85.41
3428;BME280;1727;42.624;23.406;2022-10-16T05:14:56;95650.06;;;12.07;82.18
3428;BME280;1727;42.624;23.406;2022-10-16T05:17:24;95654.88;;;12.99;77.38
3428;BME280;1727;42.624;23.406;2022-10-16T05:19:52;95665.69;;;13.91;71.49
3428;BME280;1727;42.624;23.406;2022-10-16T05:22:19;95668.31;;;14.52;68.36
3428;BME280;1727;42.624;23.406;2022-10-16T05:24:46;95673.13;;;15.16;65.95
3428;BME280;1727;42.624;23.406;2022-10-16T05:27:13;95664.75;;;15.69;63.43
3428;BME280;1727;42.624;23.406;2022-10-16T05:29:44;95668.66;;;15.74;61.26
3428;BME280;1727;42.624;23.406;2022-10-16T05:32:11;95667.00;;;15.64;62.84
3428;BME280;1727;42.624;23.406;2022-10-16T05:34:38;95660.09;;;16.00;61.56
3428;BME280;1727;42.624;23.406;2022-10-16T05:37:06;95669.22;;;16.15;60.48
3428;BME280;1727;42.624;23.406;2022-10-16T05:39:33;95661.94;;;16.27;59.74
3428;BME280;1727;42.624;23.406;2022-10-16T05:42:00;95661.41;;;16.23;60.69
3428;BME280;1727;42.624;23.406;2022-10-16T05:44:27;95669.00;;;15.89;59.98
3428;BME280;1727;42.624;23.406;2022-10-16T05:46:53;95663.72;;;15.89;61.84
3428;BME280;1727;42.624;23.406;2022-10-16T05:49:20;95668.97;;;16.08;61.43
3428;BME280;1727;42.624;23.406;2022-10-16T05:51:47;95671.75;;;16.07;61.17
3428;BME280;1727;42.624;23.406;2022-10-16T05:54:15;95674.50;;;16.15;60.87
3428;BME280;1727;42.624;23.406;2022-10-16T05:56:42;95681.84;;;16.31;60.03
3428;BME280;1727;42.624;23.406;2022-10-16T05:59:09;95685.53;;;16.10;60.55
3428;BME280;1727;42.624;23.406;2022-10-16T06:01:36;95685.69;;;16.09;60.91
3428;BME280;1727;42.624;23.406;2022-10-16T06:04:03;95683.53;;;16.32;61.29
3428;BME280;1727;42.624;23.406;2022-10-16T06:06:30;95691.59;;;16.67;60.16
3428;BME280;1727;42.624;23.406;2022-10-16T06:08:57;95690.69;;;16.86;59.06
3428;BME280;1727;42.624;23.406;2022-10-16T06:11:27;95692.03;;;16.90;58.11
3428;BME280;1727;42.624;23.406;2022-10-16T06:13:56;95696.75;;;16.96;58.64
3428;BME280;1727;42.624;23.406;2022-10-16T06:16:24;95697.91;;;17.12;58.30
3428;BME280;1727;42.624;23.406;2022-10-16T06:18:53;95697.59;;;17.32;57.29
3428;BME280;1727;42.624;23.406;2022-10-16T06:21:23;95702.63;;;17.36;56.90
3428;BME280;1727;42.624;23.406;2022-10-16T06:23:51;95697.38;;;17.08;58.03
3428;BME280;1727;42.624;23.406;2022-10-16T06:26:20;95709.06;;;17.15;58.63
3428;BME280;1727;42.624;23.406;2022-10-16T06:28:49;95709.19;;;17.31;57.73
3428;BME280;1727;42.624;23.406;2022-10-16T06:31:16;95707.84;;;17.45;57.67
3428;BME280;1727;42.624;23.406;2022-10-16T06:33:43;95715.63;;;16.56;58.71
3428;BME280;1727;42.624;23.406;2022-10-16T06:36:13;95710.78;;;16.42;60.12
3428;BME280;1727;42.624;23.406;2022-10-16T06:38:41;95714.19;;;16.62;60.57
3428;BME280;1727;42.624;23.406;2022-10-16T06:41:11;95722.25;;;16.80;59.58
3428;BME280;1727;42.624;23.406;2022-10-16T06:43:38;95724.50;;;15.91;62.25
3428;BME280;1727;42.624;23.406;2022-10-16T06:46:07;95721.44;;;16.32;61.90
3428;BME280;1727;42.624;23.406;2022-10-16T06:48:38;95728.31;;;16.16;61.94
3428;BME280;1727;42.624;23.406;2022-10-16T06:51:06;95734.34;;;15.98;62.26
3428;BME280;1727;42.624;23.406;2022-10-16T06:53:36;95732.72;;;15.68;63.69
3428;BME280;1727;42.624;23.406;2022-10-16T06:56:07;95732.81;;;15.86;63.27
3428;BME280;1727;42.624;23.406;2022-10-16T06:58:34;95739.47;;;16.09;63.30
3428;BME280;1727;42.624;23.406;2022-10-16T07:01:01;95742.31;;;15.60;63.20
3428;BME280;1727;42.624;23.406;2022-10-16T07:03:29;95738.97;;;15.48;64.03
3428;BME280;1727;42.624;23.406;2022-10-16T07:05:56;95744.66;;;15.53;64.51
3428;BME280;1727;42.624;23.406;2022-10-16T07:08:23;95745.41;;;15.65;64.75
3428;BME280;1727;42.624;23.406;2022-10-16T07:11:00;95733.94;;;15.84;64.66
3428;BME280;1727;42.624;23.406;2022-10-16T07:13:28;95746.44;;;16.10;63.60
3428;BME280;1727;42.624;23.406;2022-10-16T07:15:55;95747.53;;;16.27;63.00
3428;BME280;1727;42.624;23.406;2022-10-16T07:18:22;95748.28;;;16.47;63.09
3428;BME280;1727;42.624;23.406;2022-10-16T07:21:02;95741.16;;;16.57;61.66
3428;BME280;1727;42.624;23.406;2022-10-16T07:23:28;95752.00;;;16.64;61.98
3428;BME280;1727;42.624;23.406;2022-10-16T07:25:55;95750.06;;;16.56;62.09
3428;BME280;1727;42.624;23.406;2022-10-16T07:28:22;95743.63;;;16.68;62.36
3428;BME280;1727;42.624;23.406;2022-10-16T07:30:49;95751.72;;;16.67;61.59
3428;BME280;1727;42.624;23.406;2022-10-16T07:33:16;95744.94;;;16.45;61.95
3428;BME280;1727;42.624;23.406;2022-10-16T07:35:50;95749.69;;;16.41;62.40
3428;BME280;1727;42.624;23.406;2022-10-16T07:38:24;95753.63;;;16.37;62.94
3428;BME280;1727;42.624;23.406;2022-10-16T07:40:56;95756.66;;;16.42;62.58
3428;BME280;1727;42.624;23.406;2022-10-16T07:43:23;95749.34;;;16.27;62.85
3428;BME280;1727;42.624;23.406;2022-10-16T07:45:53;95756.75;;;16.23;63.35
3428;BME280;1727;42.624;23.406;2022-10-16T07:48:20;95752.34;;;15.85;64.00
3428;BME280;1727;42.624;23.406;2022-10-16T07:50:47;95758.69;;;16.11;64.35
3428;BME280;1727;42.624;23.406;2022-10-16T07:53:14;95760.66;;;16.09;64.21
3428;BME280;1727;42.624;23.406;2022-10-16T07:55:43;95749.31;;;16.36;64.09
3428;BME280;1727;42.624;23.406;2022-10-16T07:58:10;95753.97;;;16.62;62.63
3428;BME280;1727;42.624;23.406;2022-10-16T08:00:37;95753.38;;;16.78;62.13
3428;BME280;1727;42.624;23.406;2022-10-16T08:03:03;95753.94;;;16.71;62.11
3428;BME280;1727;42.624;23.406;2022-10-16T08:05:32;95755.47;;;16.74;62.18
3428;BME280;1727;42.624;23.406;2022-10-16T08:07:59;95759.78;;;16.65;62.37
3428;BME280;1727;42.624;23.406;2022-10-16T08:10:28;95757.28;;;16.64;62.62
3428;BME280;1727;42.624;23.406;2022-10-16T08:12:56;95756.41;;;16.36;62.23
3428;BME280;1727;42.624;23.406;2022-10-16T08:15:24;95745.81;;;16.36;62.53
3428;BME280;1727;42.624;23.406;2022-10-16T08:17:55;95759.47;;;16.41;62.28
3428;BME280;1727;42.624;23.406;2022-10-16T08:20:22;95750.38;;;16.53;63.86
3428;BME280;1727;42.624;23.406;2022-10-16T08:22:48;95758.41;;;16.24;62.60
3428;BME280;1727;42.624;23.406;2022-10-16T08:25:15;95752.47;;;16.50;62.68
3428;BME280;1727;42.624;23.406;2022-10-16T08:27:42;95749.78;;;16.59;61.32
3428;BME280;1727;42.624;23.406;2022-10-16T08:30:12;95748.50;;;16.63;60.96
3428;BME280;1727;42.624;23.406;2022-10-16T08:32:39;95748.56;;;16.91;62.45
3428;BME280;1727;42.624;23.406;2022-10-16T08:35:07;95745.81;;;17.10;59.72
3428;BME280;1727;42.624;23.406;2022-10-16T08:37:34;95745.19;;;17.34;59.13
3428;BME280;1727;42.624;23.406;2022-10-16T08:40:01;95739.16;;;17.42;57.41
3428;BME280;1727;42.624;23.406;2022-10-16T08:42:40;95746.44;;;17.57;57.16
3428;BME280;1727;42.624;23.406;2022-10-16T08:45:35;95744.69;;;17.66;56.24
3428;BME280;1727;42.624;23.406;2022-10-16T08:48:11;95748.44;;;17.73;55.49
3428;BME280;1727;42.624;23.406;2022-10-16T08:50:41;95742.63;;;17.60;53.60
3428;BME280;1727;42.624;23.406;2022-10-16T08:53:14;95751.25;;;17.72;54.24
3428;BME280;1727;42.624;23.406;2022-10-16T08:55:43;95741.88;;;17.50;53.88
3428;BME280;1727;42.624;23.406;2022-10-16T08:58:13;95758.75;;;17.76;53.65
3428;BME280;1727;42.624;23.406;2022-10-16T09:00:44;95751.28;;;17.98;52.49
3428;BME280;1727;42.624;23.406;2022-10-16T09:03:17;95753.81;;;18.25;52.65
3428;BME280;1727;42.624;23.406;2022-10-16T09:06:08;95751.91;;;18.17;48.86
3428;BME280;1727;42.624;23.406;2022-10-16T09:08:46;95739.06;;;18.05;50.93
3428;BME280;1727;42.624;23.406;2022-10-16T09:11:23;95739.41;;;18.10;50.73
3428;BME280;1727;42.624;23.406;2022-10-16T09:13:55;95742.13;;;18.18;50.51
3428;BME280;1727;42.624;23.406;2022-10-16T09:16:30;95743.50;;;18.22;49.69
3428;BME280;1727;42.624;23.406;2022-10-16T09:19:01;95747.56;;;18.34;49.47
3428;BME280;1727;42.624;23.406;2022-10-16T09:21:34;95742.03;;;18.27;48.95
3428;BME280;1727;42.624;23.406;2022-10-16T09:24:09;95738.47;;;18.45;48.95
3428;BME280;1727;42.624;23.406;2022-10-16T09:26:38;95745.38;;;18.55;49.33
3428;BME280;1727;42.624;23.406;2022-10-16T09:29:05;95742.38;;;18.24;48.87
3428;BME280;1727;42.624;23.406;2022-10-16T09:31:35;95744.59;;;18.37;49.10
3428;BME280;1727;42.624;23.406;2022-10-16T09:34:03;95741.13;;;18.45;49.36
3428;BME280;1727;42.624;23.406;2022-10-16T09:36:37;95732.25;;;18.54;49.37
3428;BME280;1727;42.624;23.406;2022-10-16T09:39:07;95730.81;;;18.42;49.07
3428;BME280;1727;42.624;23.406;2022-10-16T09:41:35;95730.31;;;18.38;50.14
3428;BME280;1727;42.624;23.406;2022-10-16T09:44:05;95729.31;;;18.39;50.60
3428;BME280;1727;42.624;23.406;2022-10-16T09:46:35;95726.97;;;18.36;50.05
3428;BME280;1727;42.624;23.406;2022-10-16T09:49:16;95722.66;;;18.35;50.51
3428;BME280;1727;42.624;23.406;2022-10-16T09:51:45;95726.19;;;18.18;49.61
3428;BME280;1727;42.624;23.406;2022-10-16T09:54:14;95727.25;;;18.25;50.14
3428;BME280;1727;42.624;23.406;2022-10-16T09:56:41;95719.69;;;18.38;50.71
3428;BME280;1727;42.624;23.406;2022-10-16T09:59:12;95718.44;;;18.50;50.35
3428;BME280;1727;42.624;23.406;2022-10-16T10:01:43;95716.13;;;18.55;50.55
3428;BME280;1727;42.624;23.406;2022-10-16T10:04:11;95723.03;;;18.48;50.25
3428;BME280;1727;42.624;23.406;2022-10-16T10:06:43;95716.31;;;18.28;50.14
3428;BME280;1727;42.624;23.406;2022-10-16T10:09:20;95712.84;;;18.36;50.56
3428;BME280;1727;42.624;23.406;2022-10-16T10:11:50;95709.00;;;18.30;50.13
3428;BME280;1727;42.624;23.406;2022-10-16T10:14:20;95702.03;;;18.29;50.46
3428;BME280;1727;42.624;23.406;2022-10-16T10:16:50;95695.38;;;18.25;50.88
3428;BME280;1727;42.624;23.406;2022-10-16T10:19:19;95700.09;;;18.13;50.64
3428;BME280;1727;42.624;23.406;2022-10-16T10:21:46;95705.88;;;18.09;50.99
3428;BME280;1727;42.624;23.406;2022-10-16T10:24:14;95701.59;;;18.16;51.33
3428;BME280;1727;42.624;23.406;2022-10-16T10:26:48;95699.03;;;18.24;51.67
3428;BME280;1727;42.624;23.406;2022-10-16T10:29:24;95699.56;;;18.36;50.87
3428;BME280;1727;42.624;23.406;2022-10-16T10:32:01;95691.97;;;18.49;50.48
3428;BME280;1727;42.624;23.406;2022-10-16T10:34:42;95691.56;;;18.62;51.06
3428;BME280;1727;42.624;23.406;2022-10-16T10:37:23;95683.75;;;18.60;49.38
3428;BME280;1727;42.624;23.406;2022-10-16T10:40:01;95688.13;;;18.69;50.34
3428;BME280;1727;42.624;23.406;2022-10-16T10:42:35;95691.97;;;18.75;50.38
3428;BME280;1727;42.624;23.406;2022-10-16T10:45:19;95698.59;;;18.71;47.96
3428;BME280;1727;42.624;23.406;2022-10-16T10:48:12;95687.50;;;18.49;47.04
3428;BME280;1727;42.624;23.406;2022-10-16T10:50:49;95678.53;;;18.16;47.60
3428;BME280;1727;42.624;23.406;2022-10-16T10:53:26;95682.53;;;18.20;47.04
3428;BME280;1727;42.624;23.406;2022-10-16T10:56:04;95681.44;;;18.31;46.59
3428;BME280;1727;42.624;23.406;2022-10-16T11:01:41;95675.38;;;18.47;46.79
3428;BME280;1727;42.624;23.406;2022-10-16T11:04:34;95663.03;;;18.64;45.46
3428;BME280;1727;42.624;23.406;2022-10-16T11:07:08;95660.88;;;18.75;44.55
3428;BME280;1727;42.624;23.406;2022-10-16T11:09:38;95657.13;;;18.86;45.04
3428;BME280;1727;42.624;23.406;2022-10-16T11:12:12;95658.00;;;18.61;41.75
3428;BME280;1727;42.624;23.406;2022-10-16T11:14:44;95654.25;;;18.45;41.97
3428;BME280;1727;42.624;23.406;2022-10-16T11:17:16;95662.69;;;18.67;41.88
3428;BME280;1727;42.624;23.406;2022-10-16T11:19:51;95661.09;;;18.82;41.14
3428;BME280;1727;42.624;23.406;2022-10-16T11:22:24;95646.31;;;18.79;40.39
3428;BME280;1727;42.624;23.406;2022-10-16T11:25:00;95647.59;;;18.75;39.42
3428;BME280;1727;42.624;23.406;2022-10-16T11:27:35;95648.06;;;18.63;40.08
3428;BME280;1727;42.624;23.406;2022-10-16T11:30:11;95648.25;;;18.69;41.23
3428;BME280;1727;42.624;23.406;2022-10-16T11:32:49;95643.38;;;18.56;39.14
3428;BME280;1727;42.624;23.406;2022-10-16T11:35:24;95646.91;;;18.73;41.45
3428;BME280;1727;42.624;23.406;2022-10-16T11:37:53;95645.16;;;18.82;42.24
3428;BME280;1727;42.624;23.406;2022-10-16T11:40:27;95643.47;;;18.81;40.61
3428;BME280;1727;42.624;23.406;2022-10-16T11:42:59;95643.47;;;18.81;41.62
3428;BME280;1727;42.624;23.406;2022-10-16T11:45:33;95644.97;;;18.83;41.93
3428;BME280;1727;42.624;23.406;2022-10-16T11:48:08;95639.84;;;18.90;42.58
3428;BME280;1727;42.624;23.406;2022-10-16T11:50:48;95640.00;;;18.97;41.36
3428;BME280;1727;42.624;23.406;2022-10-16T11:53:23;95645.50;;;18.95;40.19
3428;BME280;1727;42.624;23.406;2022-10-16T11:55:55;95639.34;;;18.95;39.90
3428;BME280;1727;42.624;23.406;2022-10-16T11:58:27;95649.47;;;18.91;40.39
3428;BME280;1727;42.624;23.406;2022-10-16T12:01:02;95647.81;;;18.90;40.98
3428;BME280;1727;42.624;23.406;2022-10-16T12:03:36;95638.16;;;18.81;41.71
3428;BME280;1727;42.624;23.406;2022-10-16T12:06:16;95633.50;;;18.83;40.61
3428;BME280;1727;42.624;23.406;2022-10-16T12:08:49;95632.69;;;18.82;41.44
3428;BME280;1727;42.624;23.406;2022-10-16T12:11:24;95640.16;;;18.87;42.27
3428;BME280;1727;42.624;23.406;2022-10-16T12:14:05;95635.19;;;18.92;41.40
3428;BME280;1727;42.624;23.406;2022-10-16T12:16:32;95632.19;;;18.95;42.14
3428;BME280;1727;42.624;23.406;2022-10-16T12:19:11;95636.19;;;18.99;42.83
3428;BME280;1727;42.624;23.406;2022-10-16T12:21:41;95637.53;;;18.95;39.89
3428;BME280;1727;42.624;23.406;2022-10-16T12:27:04;95631.38;;;18.95;38.13
3428;BME280;1727;42.624;23.406;2022-10-16T12:29:36;95632.69;;;18.91;37.68
3428;BME280;1727;42.624;23.406;2022-10-16T12:32:05;95643.50;;;18.89;39.04
3428;BME280;1727;42.624;23.406;2022-10-16T12:34:38;95640.19;;;18.95;39.66
3428;BME280;1727;42.624;23.406;2022-10-16T12:37:14;95634.84;;;18.95;41.39
3428;BME280;1727;42.624;23.406;2022-10-16T12:39:42;95636.69;;;18.95;40.01
3428;BME280;1727;42.624;23.406;2022-10-16T12:42:32;95635.53;;;18.97;39.18
3428;BME280;1727;42.624;23.406;2022-10-16T12:45:01;95636.53;;;18.96;40.10
3428;BME280;1727;42.624;23.406;2022-10-16T12:47:47;95637.34;;;18.97;40.14
3428;BME280;1727;42.624;23.406;2022-10-16T12:50:30;95639.84;;;18.98;40.59
3428;BME280;1727;42.624;23.406;2022-10-16T12:53:00;95640.50;;;19.00;41.44
3428;BME280;1727;42.624;23.406;2022-10-16T12:55:34;95641.69;;;19.06;41.17
3428;BME280;1727;42.624;23.406;2022-10-16T12:58:16;95642.84;;;18.95;40.75
3428;BME280;1727;42.624;23.406;2022-10-16T13:00:45;95646.84;;;18.99;40.91
3428;BME280;1727;42.624;23.406;2022-10-16T13:03:44;95649.81;;;19.04;41.90
3428;BME280;1727;42.624;23.406;2022-10-16T13:06:20;95649.00;;;19.04;42.29
3428;BME280;1727;42.624;23.406;2022-10-16T13:09:03;95654.16;;;18.97;38.30
3428;BME280;1727;42.624;23.406;2022-10-16T13:11:43;95655.13;;;18.88;38.59
3428;BME280;1727;42.624;23.406;2022-10-16T13:14:25;95639.50;;;18.85;39.87
3428;BME280;1727;42.624;23.406;2022-10-16T13:17:06;95640.13;;;18.79;41.21
3428;BME280;1727;42.624;23.406;2022-10-16T13:19:42;95650.81;;;18.95;41.56
3428;BME280;1727;42.624;23.406;2022-10-16T13:22:18;95652.09;;;18.75;38.72
3428;BME280;1727;42.624;23.406;2022-10-16T13:25:02;95654.28;;;18.79;39.35
3428;BME280;1727;42.624;23.406;2022-10-16T13:27:39;95650.63;;;18.88;39.70
3428;BME280;1727;42.624;23.406;2022-10-16T13:30:13;95646.47;;;18.86;39.87
3428;BME280;1727;42.624;23.406;2022-10-16T13:32:45;95645.31;;;18.88;40.25
3428;BME280;1727;42.624;23.406;2022-10-16T13:35:22;95649.81;;;18.96;40.25
3428;BME280;1727;42.624;23.406;2022-10-16T13:37:49;95654.81;;;19.07;39.50